Time;durP1;ratioP1;P1;durP2;ratioP2;P2;SDS_P1;SDS_P2;PMS_P1;PMS_P2;Temp;Humidity;BMP_temperature;BMP_pressure;BME280_temperature;BME280_humidity;BME280_pressure;Samples;Min_cycle;Max_cycle;Signal;HPM_P1;HPM_P2
2022/12/22 03:28:04;;;;;;;33.80;15.80;;;;;;;4.50;91.44;100083.48;106673;1235;108441;-75
2022/12/22 03:30:30;;;;;;;31.00;13.70;;;;;;;4.51;91.26;100082.59;106648;1235;97694;-75
2022/12/22 03:32:55;;;;;;;29.70;14.80;;;;;;;4.50;91.58;100077.64;106537;1234;138242;-74
2022/12/22 03:35:21;;;;;;;29.40;14.10;;;;;;;4.51;91.51;100071.77;106828;1235;97753;-75
2022/12/22 03:37:46;;;;;;;26.50;13.10;;;;;;;4.51;91.33;100071.62;106531;1235;139289;-75
2022/12/22 03:40:12;;;;;;;31.20;14.40;;;;;;;4.51;91.41;100061.00;106751;1235;97718;-75
2022/12/22 03:48:05;;;;;;;28.70;13.30;;;;;;;4.45;91.47;100052.66;106717;1235;106185;-75
2022/12/22 03:50:30;;;;;;;29.50;13.80;;;;;;;4.45;91.39;100047.72;106480;1237;138744;-74
2022/12/22 03:52:55;;;;;;;25.10;12.80;;;;;;;4.45;91.45;100037.27;106758;1243;97687;-75
2022/12/22 03:55:21;;;;;;;26.80;13.50;;;;;;;4.46;91.33;100033.36;106686;1236;97794;-75
2022/12/22 03:57:46;;;;;;;28.60;14.30;;;;;;;4.47;91.46;100028.91;106722;1255;138759;-75
2022/12/22 04:00:12;;;;;;;32.40;15.00;;;;;;;4.49;91.49;100029.39;106744;1229;97733;-73
2022/12/22 04:02:37;;;;;;;33.80;13.90;;;;;;;4.49;91.33;100020.90;106651;1237;138431;-75
2022/12/22 04:05:03;;;;;;;28.50;13.30;;;;;;;4.48;91.49;100019.48;106798;1230;97680;-75
2022/12/22 04:07:28;;;;;;;28.90;14.70;;;;;;;4.47;91.52;100020.39;106560;1253;139508;-75
2022/12/22 04:12:53;;;;;;;28.40;12.90;;;;;;;4.45;91.36;100021.70;106790;1235;108003;-74
2022/12/22 04:15:20;;;;;;;27.40;12.90;;;;;;;4.44;91.26;100021.92;106632;1243;138697;-74
2022/12/22 04:17:45;;;;;;;28.60;14.30;;;;;;;4.41;91.28;100027.50;106670;1236;99997;-75
2022/12/22 04:20:11;;;;;;;26.00;12.70;;;;;;;4.38;91.42;100025.10;106618;1237;139114;-75
2022/12/22 04:22:36;;;;;;;30.70;14.40;;;;;;;4.37;91.43;100023.73;106840;1240;97687;-75
2022/12/22 04:25:02;;;;;;;30.70;12.80;;;;;;;4.35;91.50;100020.40;106713;1230;97671;-74
2022/12/22 04:27:27;;;;;;;30.00;12.70;;;;;;;4.32;91.43;100021.36;106542;1237;138316;-75
2022/12/22 04:29:53;;;;;;;21.70;11.90;;;;;;;4.30;91.35;100024.45;106749;1235;110712;-76
2022/12/22 04:32:18;;;;;;;26.40;12.00;;;;;;;4.25;91.20;100024.21;106764;1235;138458;-75
2022/12/22 04:34:43;;;;;;;24.70;12.60;;;;;;;4.21;91.32;100026.61;106810;1236;97741;-74
2022/12/22 04:37:08;;;;;;;28.30;13.00;;;;;;;4.20;91.48;100025.75;106866;1227;97726;-74
2022/12/22 04:39:34;;;;;;;27.30;13.40;;;;;;;4.20;91.49;100016.73;106678;1244;138425;-75
2022/12/22 04:41:59;;;;;;;26.00;13.20;;;;;;;4.20;91.42;100014.61;106778;1229;98138;-75
2022/12/22 04:44:24;;;;;;;24.80;13.00;;;;;;;4.20;91.49;100008.62;106673;1230;138432;-75
2022/12/22 04:46:49;;;;;;;31.20;14.10;;;;;;;4.19;91.52;100014.11;106796;1229;111145;-75
2022/12/22 04:49:15;;;;;;;26.90;13.30;;;;;;;4.19;91.54;100007.23;106679;1235;97633;-75
2022/12/22 04:51:40;;;;;;;30.40;13.50;;;;;;;4.18;91.35;100005.84;106632;1231;138229;-74
2022/12/22 04:54:05;;;;;;;25.80;13.30;;;;;;;4.15;91.37;100006.45;106737;1236;97660;-75
2022/12/22 04:56:30;;;;;;;28.30;14.40;;;;;;;4.13;91.37;99997.68;106616;1235;139147;-74
2022/12/22 04:58:56;;;;;;;29.70;14.60;;;;;;;4.11;91.57;99995.96;106656;1235;98917;-76
2022/12/22 05:01:21;;;;;;;33.70;13.10;;;;;;;4.11;91.35;99991.36;106622;1237;97717;-74
2022/12/22 05:03:46;;;;;;;29.50;14.80;;;;;;;4.08;91.48;99986.85;106599;1230;138010;-75
2022/12/22 05:06:12;;;;;;;32.10;13.60;;;;;;;4.05;91.42;99994.17;106741;1237;97631;-74
2022/12/22 05:08:38;;;;;;;27.90;14.30;;;;;;;4.03;91.33;100002.71;106671;1235;138232;-75
2022/12/22 05:11:03;;;;;;;25.00;13.20;;;;;;;4.00;91.31;100005.44;106666;1233;97774;-75
2022/12/22 05:13:30;;;;;;;25.80;13.60;;;;;;;3.97;91.31;100005.00;106614;1244;138535;-74
2022/12/22 05:16:05;;;;;;;29.10;14.00;;;;;;;3.93;91.18;99996.61;106626;1238;99144;-76
2022/12/22 05:18:31;;;;;;;29.70;13.60;;;;;;;3.91;91.26;99989.79;106685;1235;107926;-77
2022/12/22 05:20:56;;;;;;;27.80;14.60;;;;;;;3.89;91.22;99986.48;106618;1235;138650;-78
2022/12/22 05:23:22;;;;;;;26.80;13.30;;;;;;;3.88;91.37;99984.38;106683;1230;97647;-76
2022/12/22 05:25:47;;;;;;;25.80;12.80;;;;;;;3.88;91.32;99974.66;106719;1235;138763;-76
2022/12/22 05:28:12;;;;;;;25.50;15.50;;;;;;;3.84;91.11;99977.95;106782;1227;97864;-76
2022/12/22 05:30:39;;;;;;;30.70;15.60;;;;;;;3.84;91.37;99980.25;106917;1235;95897;-81
2022/12/22 05:33:32;;;;;;;32.00;15.50;;;;;;;3.83;91.32;99974.44;106628;1228;138273;-75
2022/12/22 05:35:57;;;;;;;29.90;14.10;;;;;;;3.83;91.23;99973.56;106774;1235;99038;-75
2022/12/22 05:38:23;;;;;;;30.50;14.20;;;;;;;3.83;91.42;99970.74;106575;1245;138824;-75
2022/12/22 05:40:48;;;;;;;32.60;16.70;;;;;;;3.81;91.34;99966.02;106757;1232;98066;-75
2022/12/22 05:43:13;;;;;;;29.60;14.60;;;;;;;3.81;91.51;99958.42;106634;1230;98983;-75
2022/12/22 05:45:39;;;;;;;30.00;15.40;;;;;;;3.82;91.45;99955.73;106630;1229;138169;-76
2022/12/22 05:48:05;;;;;;;32.00;16.40;;;;;;;3.81;91.45;99955.58;106729;1229;97716;-75
2022/12/22 05:50:31;;;;;;;34.50;15.70;;;;;;;3.82;91.39;99954.14;106638;1227;138186;-75
2022/12/22 05:52:57;;;;;;;34.60;16.00;;;;;;;3.81;91.42;99955.05;106864;1233;97715;-75
2022/12/22 05:55:23;;;;;;;33.00;18.20;;;;;;;3.81;91.57;99958.06;106761;1228;108427;-75
2022/12/22 05:57:54;;;;;;;41.00;18.60;;;;;;;3.81;91.41;99956.30;106648;1238;138834;-75
2022/12/22 06:01:05;;;;;;;31.90;16.70;;;;;;;3.82;91.34;99953.96;106744;1227;97752;-75
2022/12/22 06:03:50;;;;;;;;;;;;;;;3.79;91.37;99950.33;106658;1230;138747;-75
2022/12/22 06:06:40;;;;;;;35.00;16.10;;;;;;;3.75;91.34;99947.29;106735;1235;99888;-74
2022/12/22 06:09:07;;;;;;;35.00;14.80;;;;;;;3.71;91.54;99945.61;106561;1238;139373;-75
2022/12/22 06:11:33;;;;;;;32.80;15.90;;;;;;;3.70;91.37;99945.29;106731;1235;97747;-76
2022/12/22 06:13:58;;;;;;;32.00;14.90;;;;;;;3.70;91.70;99944.06;106618;1228;139196;-76
2022/12/22 06:16:23;;;;;;;33.90;15.70;;;;;;;3.67;91.49;99940.05;106733;1229;97712;-75
2022/12/22 06:18:49;;;;;;;33.20;13.90;;;;;;;3.67;91.42;99936.00;106778;1231;96471;-75
2022/12/22 06:21:14;;;;;;;32.40;14.50;;;;;;;3.64;91.58;99939.27;106674;1234;138223;-76
2022/12/22 06:23:39;;;;;;;29.50;13.70;;;;;;;3.58;91.41;99938.52;106727;1234;96726;-76
2022/12/22 06:26:04;;;;;;;29.50;14.10;;;;;;;3.55;91.35;99942.14;106755;1230;138433;-75
2022/12/22 06:28:31;;;;;;;28.20;13.70;;;;;;;3.57;91.57;99947.56;106637;1235;95427;-75
2022/12/22 06:30:56;;;;;;;41.50;14.40;;;;;;;3.61;91.64;99952.77;106834;1236;97739;-75
2022/12/22 06:33:22;;;;;;;33.50;15.20;;;;;;;3.59;91.74;99945.40;106662;1235;138791;-76
2022/12/22 06:35:47;;;;;;;26.20;14.50;;;;;;;3.59;91.73;99941.52;106736;1236;106806;-75
2022/12/22 06:38:12;;;;;;;35.30;14.80;;;;;;;3.61;91.79;99941.10;106690;1252;139041;-75
2022/12/22 06:40:38;;;;;;;45.20;14.60;;;;;;;3.62;91.88;99942.50;106842;1229;97603;-75
2022/12/22 06:43:09;;;;;;;35.20;15.00;;;;;;;3.62;91.73;99944.61;106591;1248;97819;-74
2022/12/22 06:45:36;;;;;;;30.10;15.00;;;;;;;3.68;91.90;99944.09;106668;1238;139006;-75
2022/12/22 06:48:02;;;;;;;28.60;14.40;;;;;;;3.72;91.99;99940.10;106826;1236;97659;-75
2022/12/22 06:50:28;;;;;;;31.30;14.00;;;;;;;3.70;91.77;99933.10;106690;1235;138220;-75
2022/12/22 06:52:53;;;;;;;22.00;12.30;;;;;;;3.66;91.62;99930.19;106785;1245;98644;-75
2022/12/22 06:55:18;;;;;;;54.00;15.10;;;;;;;3.64;91.65;99930.42;106589;1238;97670;-73
2022/12/22 06:57:44;;;;;;;60.80;17.90;;;;;;;3.69;91.97;99931.52;106656;1244;138321;-75
2022/12/22 07:00:09;;;;;;;45.80;14.50;;;;;;;3.74;92.05;99937.57;106902;1251;97680;-75
2022/12/22 07:02:35;;;;;;;36.90;15.50;;;;;;;3.81;92.25;99938.46;106558;1236;138260;-76
2022/12/22 07:05:00;;;;;;;41.10;16.00;;;;;;;3.85;92.08;99935.50;106814;1229;97829;-76
2022/12/22 07:07:26;;;;;;;35.80;13.70;;;;;;;3.87;92.15;99932.27;106559;1246;138829;-75
2022/12/22 07:09:51;;;;;;;43.40;15.60;;;;;;;3.89;92.24;99931.48;106662;1242;97606;-76
2022/12/22 07:12:17;;;;;;;35.70;13.30;;;;;;;3.95;92.18;99928.86;106661;1238;97855;-76
2022/12/22 07:14:42;;;;;;;48.60;13.00;;;;;;;3.95;92.09;99929.41;106752;1245;139316;-76
2022/12/22 07:17:08;;;;;;;47.20;14.10;;;;;;;3.98;92.27;99927.38;106820;1228;96892;-76
2022/12/22 07:19:33;;;;;;;34.50;12.90;;;;;;;4.01;92.12;99923.94;106703;1241;138385;-74
2022/12/22 07:21:58;;;;;;;26.50;12.90;;;;;;;4.04;92.53;99925.08;106653;1236;97739;-74
2022/12/22 07:24:24;;;;;;;30.20;12.70;;;;;;;4.03;92.13;99921.73;106898;1227;97732;-74
2022/12/22 07:26:50;;;;;;;23.20;13.10;;;;;;;4.03;92.28;99913.64;106572;1230;138585;-76
2022/12/22 07:29:15;;;;;;;27.80;13.80;;;;;;;4.03;92.19;99916.27;106652;1243;97603;-74
2022/12/22 07:31:40;;;;;;;23.60;12.40;;;;;;;4.03;92.29;99911.52;106468;1237;138365;-74
2022/12/22 07:34:06;;;;;;;29.40;13.80;;;;;;;4.04;92.06;99910.07;106523;1236;97596;-76
2022/12/22 07:36:31;;;;;;;26.30;12.90;;;;;;;4.04;92.24;99906.52;106591;1247;97684;-77
2022/12/22 07:38:56;;;;;;;30.40;14.40;;;;;;;4.02;92.04;99901.63;106676;1236;139339;-74
2022/12/22 07:44:06;;;;;;;36.30;16.60;;;;;;;3.99;92.02;99895.71;106550;1237;139203;-74
2022/12/22 07:46:34;;;;;;;34.20;17.60;;;;;;;3.99;92.31;99891.30;106518;1236;96190;-74
2022/12/22 07:51:44;;;;;;;31.50;14.30;;;;;;;3.94;92.06;99885.43;106599;1229;138669;-74
2022/12/22 07:54:12;;;;;;;22.80;15.00;;;;;;;3.92;92.23;99882.31;106632;1229;97579;-74
2022/12/22 07:56:37;;;;;;;27.50;13.90;;;;;;;3.94;92.32;99878.70;106434;1229;138382;-73
2022/12/22 07:59:03;;;;;;;22.90;13.30;;;;;;;3.95;92.25;99874.59;106617;1235;96127;-75
2022/12/22 08:01:28;;;;;;;25.60;12.70;;;;;;;3.99;92.27;99875.73;106539;1229;138339;-75
2022/12/22 08:03:54;;;;;;;25.40;11.00;;;;;;;4.01;92.32;99874.26;106733;1228;97723;-73
2022/12/22 08:06:20;;;;;;;24.90;12.40;;;;;;;4.04;92.16;99874.52;106672;1230;96484;-75
2022/12/22 08:08:45;;;;;;;29.40;15.40;;;;;;;4.07;92.26;99874.44;106770;1243;138844;-73
2022/12/22 08:11:10;;;;;;;30.80;14.60;;;;;;;4.10;92.23;99875.23;106564;1238;97633;-72
2022/12/22 08:13:36;;;;;;;29.60;14.00;;;;;;;4.12;92.36;99871.82;106711;1229;138901;-73
2022/12/22 08:16:03;;;;;;;35.20;14.60;;;;;;;4.13;92.07;99868.24;106737;1236;97606;-74
2022/12/22 08:18:29;;;;;;;28.20;13.40;;;;;;;4.15;92.10;99866.06;106556;1232;100660;-73
2022/12/22 08:20:55;;;;;;;35.50;16.60;;;;;;;4.17;92.13;99860.54;106511;1228;139994;-73
2022/12/22 08:23:20;;;;;;;50.10;23.00;;;;;;;4.19;92.13;99859.58;106741;1237;96641;-73
2022/12/22 08:25:50;;;;;;;53.40;23.80;;;;;;;4.21;92.40;99856.51;106461;1237;138782;-74
2022/12/22 08:28:16;;;;;;;58.50;25.40;;;;;;;4.26;92.32;99847.88;106553;1230;99182;-74
2022/12/22 08:30:43;;;;;;;48.40;21.40;;;;;;;4.31;92.49;99845.08;106655;1235;96521;-73
2022/12/22 08:33:08;;;;;;;44.70;18.60;;;;;;;4.34;92.41;99840.94;106676;1233;138320;-74
2022/12/22 08:35:34;;;;;;;43.60;21.10;;;;;;;4.36;92.45;99830.79;106831;1240;96449;-73
2022/12/22 08:37:59;;;;;;;37.80;18.20;;;;;;;4.39;92.48;99824.84;106544;1229;138496;-73
2022/12/22 08:40:30;;;;;;;35.00;17.50;;;;;;;4.41;92.34;99816.99;106849;1237;99867;-74
2022/12/22 08:43:01;;;;;;;39.40;19.40;;;;;;;4.42;92.25;99810.06;106800;1237;97744;-73
2022/12/22 08:45:26;;;;;;;;;;;;;;;4.44;92.35;99808.40;106544;1229;140482;-74
2022/12/22 08:47:52;;;;;;;42.60;17.20;;;;;;;4.47;92.36;99802.81;106727;1234;97651;-74
2022/12/22 08:50:17;;;;;;;32.50;16.90;;;;;;;4.48;92.36;99799.59;106550;1236;139158;-74
2022/12/22 08:52:42;;;;;;;33.70;16.30;;;;;;;4.52;92.33;99801.77;106654;1236;97740;-75
2022/12/22 08:55:08;;;;;;;40.70;18.90;;;;;;;4.56;92.69;99804.13;106763;1229;97603;-74
2022/12/22 08:57:34;;;;;;;54.20;23.00;;;;;;;4.60;92.36;99801.54;106359;1243;138600;-74
2022/12/22 08:59:59;;;;;;;42.70;22.10;;;;;;;4.63;92.49;99804.81;106551;1231;96486;-74
2022/12/22 09:02:25;;;;;;;49.70;24.80;;;;;;;4.66;92.33;99792.29;106561;1243;138784;-75
2022/12/22 09:04:50;;;;;;;41.10;20.50;;;;;;;4.73;92.45;99787.46;106611;1230;97710;-73
2022/12/22 09:07:15;;;;;;;34.30;16.00;;;;;;;4.81;92.61;99776.40;106606;1236;99643;-73
2022/12/22 09:09:41;;;;;;;34.20;16.10;;;;;;;4.88;92.31;99782.00;106464;1235;138197;-74
2022/12/22 09:12:06;;;;;;;35.30;15.50;;;;;;;4.92;92.40;99778.33;106633;1229;97496;-73
2022/12/22 09:14:32;;;;;;;36.90;14.50;;;;;;;4.99;92.45;99777.55;106618;1235;139721;-75
2022/12/22 09:16:58;;;;;;;32.30;16.20;;;;;;;5.04;92.62;99774.90;106733;1235;98555;-73
2022/12/22 09:19:24;;;;;;;29.00;14.90;;;;;;;5.08;92.57;99768.21;106633;1239;139895;-73
2022/12/22 09:21:49;;;;;;;29.30;15.20;;;;;;;5.13;92.68;99760.24;106574;1230;96168;-73
2022/12/22 09:24:15;;;;;;;30.80;16.00;;;;;;;5.18;92.59;99757.04;106602;1230;97659;-74
2022/12/22 09:26:41;;;;;;;28.40;15.00;;;;;;;5.22;92.54;99760.27;106510;1235;138860;-74
2022/12/22 09:29:07;;;;;;;28.00;14.00;;;;;;;5.22;92.33;99762.02;106745;1227;98966;-74
2022/12/22 09:31:32;;;;;;;23.10;12.90;;;;;;;5.20;92.25;99762.30;106261;1232;139737;-74
2022/12/22 09:33:58;;;;;;;24.40;13.40;;;;;;;5.19;92.36;99765.89;106646;1236;97761;-76
2022/12/22 09:36:26;;;;;;;26.30;12.20;;;;;;;5.19;92.47;99761.27;106644;1235;97637;-73
2022/12/22 09:38:52;;;;;;;22.30;11.30;;;;;;;5.19;92.35;99760.21;106310;1227;138434;-75
2022/12/22 09:41:24;;;;;;;22.30;13.30;;;;;;;5.17;92.46;99755.13;106574;1236;99340;-75
2022/12/22 09:43:50;;;;;;;25.70;14.30;;;;;;;5.15;92.43;99750.45;106502;1235;138323;-74
2022/12/22 09:46:25;;;;;;;27.00;15.30;;;;;;;5.17;92.40;99751.79;106659;1228;97608;-74
2022/12/22 09:48:52;;;;;;;37.60;16.40;;;;;;;5.19;92.51;99746.57;106781;1245;97622;-74
2022/12/22 09:51:18;;;;;;;53.10;16.40;;;;;;;5.21;92.75;99740.80;106733;1231;138652;-73
2022/12/22 09:53:47;;;;;;;98.60;21.20;;;;;;;5.28;92.69;99737.73;106753;1236;97606;-73
2022/12/22 09:56:15;;;;;;;62.20;19.10;;;;;;;5.34;92.76;99729.69;106534;1245;139248;-72
2022/12/22 09:58:41;;;;;;;57.60;17.10;;;;;;;5.39;92.69;99723.64;106609;1246;97733;-73
2022/12/22 10:01:13;;;;;;;41.80;16.50;;;;;;;5.45;92.84;99720.43;106904;1250;97716;-74
2022/12/22 10:03:49;;;;;;;37.80;15.20;;;;;;;5.51;92.86;99717.88;106707;1251;138424;-73
2022/12/22 10:06:22;;;;;;;40.50;14.60;;;;;;;5.56;92.84;99711.69;106714;1229;100145;-74
2022/12/22 10:08:47;;;;;;;23.60;13.70;;;;;;;5.62;92.78;99709.89;106494;1230;139742;-74
2022/12/22 10:11:16;;;;;;;32.20;14.80;;;;;;;5.65;92.85;99701.44;106647;1243;97644;-74
2022/12/22 10:13:42;;;;;;;29.50;16.10;;;;;;;5.68;92.65;99694.41;106537;1229;138328;-73
2022/12/22 10:16:20;;;;;;;27.70;15.30;;;;;;;5.74;92.89;99692.40;106813;1246;97629;-73
2022/12/22 10:19:04;;;;;;;25.20;13.40;;;;;;;5.79;92.95;99698.04;106549;1246;101591;-72
2022/12/22 10:21:30;;;;;;;27.90;13.50;;;;;;;5.96;93.30;99691.90;106659;1238;138409;-73
2022/12/22 10:23:55;;;;;;;29.10;14.10;;;;;;;5.95;92.78;99687.34;106510;1228;97688;-73
2022/12/22 10:26:24;;;;;;;23.90;13.10;;;;;;;5.94;92.76;99681.70;106645;1238;138747;-75
2022/12/22 10:29:04;;;;;;;25.90;13.60;;;;;;;5.95;92.87;99681.16;106561;1234;100879;-74
2022/12/22 10:31:35;;;;;;;24.90;13.30;;;;;;;5.96;92.88;99679.83;106754;1235;140335;-73
2022/12/22 10:34:13;;;;;;;34.00;15.40;;;;;;;5.99;92.87;99675.29;106603;1237;97679;-73
2022/12/22 10:36:45;;;;;;;41.70;21.30;;;;;;;6.01;92.77;99672.20;106538;1229;97770;-73
2022/12/22 10:39:18;;;;;;;33.60;16.90;;;;;;;6.04;92.88;99674.05;106625;1234;138527;-73
2022/12/22 10:41:46;;;;;;;33.30;16.90;;;;;;;6.07;92.98;99666.98;106786;1229;98736;-73
2022/12/22 10:44:14;;;;;;;30.50;14.90;;;;;;;6.11;92.90;99661.34;106653;1235;138968;-74
2022/12/22 10:46:45;;;;;;;27.30;14.00;;;;;;;6.11;92.81;99660.27;106650;1235;97984;-75
2022/12/22 10:49:19;;;;;;;29.70;14.00;;;;;;;6.11;92.85;99656.87;106762;1235;98796;-75
2022/12/22 10:51:48;;;;;;;26.90;13.90;;;;;;;6.13;92.78;99651.65;106674;1235;138256;-73
2022/12/22 10:54:34;;;;;;;26.40;13.80;;;;;;;6.14;92.82;99650.91;106698;1235;99452;-74
2022/12/22 10:57:00;;;;;;;32.10;14.80;;;;;;;6.16;92.69;99643.38;106572;1230;140805;-74
2022/12/22 10:59:25;;;;;;;28.40;14.40;;;;;;;6.19;92.86;99640.95;106790;1235;96394;-75
2022/12/22 11:01:50;;;;;;;33.00;17.10;;;;;;;6.22;92.87;99628.95;106662;1238;139163;-77
2022/12/22 11:04:26;;;;;;;25.40;13.90;;;;;;;6.25;92.84;99627.77;106782;1243;97626;-75
2022/12/22 11:06:53;;;;;;;26.40;14.50;;;;;;;6.31;93.06;99629.10;106670;1230;107714;-74
2022/12/22 11:09:19;;;;;;;26.90;13.50;;;;;;;6.38;93.01;99629.34;106598;1230;138475;-74
2022/12/22 11:11:54;;;;;;;23.10;13.20;;;;;;;6.41;92.99;99626.17;106737;1229;97711;-75
2022/12/22 11:14:58;;;;;;;26.20;13.60;;;;;;;6.51;93.00;99618.47;106573;1234;138132;-74
2022/12/22 11:17:37;;;;;;;26.20;13.80;;;;;;;6.59;93.14;99616.52;106745;1231;99265;-74
2022/12/22 11:20:29;;;;;;;25.40;13.20;;;;;;;6.66;93.07;99612.16;106588;1233;138980;-74
2022/12/22 11:23:22;;;;;;;22.70;13.40;;;;;;;6.72;92.99;99607.26;106669;1237;97974;-74
2022/12/22 11:26:16;;;;;;;27.20;13.30;;;;;;;6.74;92.85;99599.73;106533;1236;138562;-73
2022/12/22 11:28:50;;;;;;;23.90;13.50;;;;;;;6.72;92.90;99589.16;106805;1234;109995;-73
2022/12/22 11:31:58;;;;;;;28.00;14.20;;;;;;;6.71;92.79;99591.69;106759;1235;98520;-74
2022/12/22 11:35:37;;;;;;;28.60;14.20;;;;;;;6.70;92.76;99582.48;106619;1235;107438;-76
2022/12/22 11:38:26;;;;;;;28.90;13.90;;;;;;;6.69;92.78;99576.85;106125;1242;140239;-78
2022/12/22 11:41:28;;;;;;;27.10;13.30;;;;;;;6.69;92.90;99576.16;106442;1241;96380;-76
2022/12/22 11:44:29;;;;;;;28.00;13.00;;;;;;;6.69;92.85;99572.59;106619;1236;138566;-75
2022/12/22 11:47:16;;;;;;;29.70;14.10;;;;;;;6.69;92.89;99571.70;106751;1245;101341;-75
2022/12/22 11:50:04;;;;;;;26.00;14.00;;;;;;;6.72;92.89;99568.58;106738;1246;138706;-75
2022/12/22 11:53:14;;;;;;;24.40;13.20;;;;;;;6.72;92.90;99561.98;106955;1250;97720;-75
2022/12/22 11:55:58;;;;;;;30.00;14.40;;;;;;;6.73;92.83;99557.33;106893;1252;139241;-75
2022/12/22 11:58:54;;;;;;;27.00;13.70;;;;;;;6.73;92.88;99558.03;106966;1245;112620;-75
2022/12/22 12:01:42;;;;;;;30.20;14.10;;;;;;;6.68;92.72;99553.10;106991;1237;100526;-75
2022/12/22 12:04:13;;;;;;;36.20;14.00;;;;;;;6.64;92.75;99550.29;106922;1235;106281;-75
2022/12/22 12:06:46;;;;;;;;;;;;;;;6.62;92.60;99548.25;106982;1227;96468;-76
2022/12/22 12:09:33;;;;;;;28.40;14.90;;;;;;;6.60;92.68;99544.63;106880;1243;124580;-75
2022/12/22 12:11:59;;;;;;;48.10;22.60;;;;;;;6.57;92.70;99545.98;106853;1251;111484;-75
2022/12/22 12:14:38;;;;;;;33.90;16.90;;;;;;;6.60;92.94;99542.14;106933;1237;138740;-75
2022/12/22 12:17:18;;;;;;;33.70;17.10;;;;;;;6.63;92.88;99542.68;106794;1246;107690;-76
2022/12/22 12:20:07;;;;;;;43.80;21.70;;;;;;;6.65;92.89;99537.81;106730;1243;138930;-75
2022/12/22 12:22:54;;;;;;;30.70;16.40;;;;;;;6.66;92.97;99536.36;106832;1248;97719;-75
2022/12/22 12:25:48;;;;;;;26.20;14.60;;;;;;;6.66;92.88;99532.42;106850;1245;111949;-75
2022/12/22 12:28:28;;;;;;;26.70;14.50;;;;;;;6.64;92.92;99529.72;106604;1243;99444;-75
2022/12/22 12:30:57;;;;;;;24.90;13.60;;;;;;;6.65;93.04;99530.02;106825;1236;108590;-74
2022/12/22 12:33:41;;;;;;;36.00;15.40;;;;;;;6.67;93.03;99525.49;106801;1252;138939;-74
2022/12/22 12:36:26;;;;;;;36.80;18.60;;;;;;;6.63;92.90;99516.27;106890;1246;99727;-75
2022/12/22 12:39:01;;;;;;;30.40;15.70;;;;;;;6.66;93.07;99519.13;106590;1230;138775;-73
2022/12/22 12:41:42;;;;;;;28.50;14.00;;;;;;;6.63;92.95;99516.43;106795;1228;100800;-72
2022/12/22 12:44:16;;;;;;;36.10;14.90;;;;;;;6.61;92.94;99513.70;106659;1237;138697;-72
2022/12/22 12:46:49;;;;;;;26.30;14.80;;;;;;;6.62;93.06;99511.70;106684;1247;96622;-72
2022/12/22 12:49:34;;;;;;;33.30;15.60;;;;;;;6.65;93.05;99509.08;106700;1245;97821;-73
2022/12/22 12:52:10;;;;;;;31.00;15.50;;;;;;;6.66;93.13;99506.34;106703;1242;138378;-72
2022/12/22 12:54:40;;;;;;;31.70;16.20;;;;;;;6.66;93.05;99502.80;106769;1246;99606;-73
2022/12/22 12:57:05;;;;;;;29.50;15.20;;;;;;;6.65;93.22;99495.41;106628;1238;138359;-72
2022/12/22 12:59:40;;;;;;;29.40;15.30;;;;;;;6.66;93.08;99495.51;106732;1243;97716;-72
2022/12/22 13:02:57;;;;;;;28.50;13.90;;;;;;;6.63;93.00;99496.00;106545;1242;139358;-73
2022/12/22 13:05:35;;;;;;;31.40;15.00;;;;;;;6.59;93.00;99497.61;106809;1248;110807;-73
2022/12/22 13:08:14;;;;;;;32.20;15.60;;;;;;;6.54;92.98;99496.09;106683;1235;139849;-73
2022/12/22 13:10:47;;;;;;;30.90;16.10;;;;;;;6.50;93.11;99495.19;106789;1244;108828;-75
2022/12/22 13:13:24;;;;;;;28.10;16.00;;;;;;;6.51;93.20;99493.01;106676;1235;97708;-74
2022/12/22 13:15:49;;;;;;;32.30;14.70;;;;;;;6.52;93.27;99492.95;106616;1235;138378;-73
2022/12/22 13:18:14;;;;;;;37.30;19.00;;;;;;;6.53;93.25;99495.24;106562;1242;97626;-74
2022/12/22 13:20:40;;;;;;;29.80;18.20;;;;;;;6.53;93.39;99493.98;106709;1250;138736;-72
2022/12/22 13:23:13;;;;;;;33.70;18.10;;;;;;;6.54;93.36;99489.71;106775;1234;97580;-72
2022/12/22 13:25:44;;;;;;;32.10;17.40;;;;;;;6.54;93.32;99489.69;106733;1239;97914;-72
2022/12/22 13:28:14;;;;;;;36.90;17.50;;;;;;;6.55;93.41;99489.81;106548;1239;112164;-72
2022/12/22 13:30:48;;;;;;;30.00;17.50;;;;;;;6.56;93.52;99484.98;106646;1235;100481;-74
2022/12/22 13:33:17;;;;;;;30.20;15.60;;;;;;;6.57;93.46;99483.14;106756;1247;138577;-72
2022/12/22 13:35:45;;;;;;;31.30;16.50;;;;;;;6.59;93.59;99476.16;106755;1234;97717;-72
2022/12/22 13:38:33;;;;;;;32.60;15.10;;;;;;;6.60;93.47;99478.41;106676;1235;139533;-73
2022/12/22 13:41:03;;;;;;;29.20;14.90;;;;;;;6.61;93.58;99475.89;106718;1245;111249;-72
2022/12/22 13:43:32;;;;;;;31.30;15.90;;;;;;;6.61;93.62;99476.05;106735;1237;99007;-72
2022/12/22 13:46:00;;;;;;;33.10;14.70;;;;;;;6.61;93.72;99469.84;106663;1237;139833;-74
2022/12/22 13:48:43;;;;;;;35.00;16.50;;;;;;;6.62;93.70;99473.34;106644;1235;97607;-73
2022/12/22 13:51:34;;;;;;;33.90;16.00;;;;;;;6.65;93.74;99472.49;106583;1235;138917;-74
2022/12/22 13:54:14;;;;;;;33.80;16.90;;;;;;;6.65;93.82;99470.70;106581;1236;111274;-73
2022/12/22 13:56:47;;;;;;;37.30;17.30;;;;;;;6.67;93.80;99473.66;107027;1246;138926;-74
2022/12/22 13:59:34;;;;;;;33.40;15.60;;;;;;;6.65;93.65;99464.67;106730;1238;107828;-73
2022/12/22 14:02:02;;;;;;;31.00;15.80;;;;;;;6.64;93.80;99465.62;106804;1241;139336;-70
2022/12/22 14:04:28;;;;;;;38.30;18.80;;;;;;;6.64;93.65;99467.77;106615;1236;99250;-73
2022/12/22 14:06:54;;;;;;;35.10;18.30;;;;;;;6.64;93.76;99469.89;106516;1241;97678;-72
2022/12/22 14:09:24;;;;;;;34.90;18.00;;;;;;;6.64;93.84;99468.63;106431;1234;138607;-73
2022/12/22 14:11:55;;;;;;;38.00;19.70;;;;;;;6.67;93.99;99468.50;106567;1242;99132;-76
2022/12/22 14:14:25;;;;;;;36.00;18.60;;;;;;;6.69;94.04;99467.17;106563;1235;139406;-76
2022/12/22 14:16:54;;;;;;;35.70;17.80;;;;;;;6.70;94.04;99465.88;108830;1238;112199;-75
2022/12/22 14:19:22;;;;;;;30.80;15.80;;;;;;;6.71;94.04;99460.13;108699;1252;99502;-75
2022/12/22 14:22:10;;;;;;;28.50;16.00;;;;;;;6.70;94.06;99463.38;108763;1241;138375;-75
2022/12/22 14:24:44;;;;;;;29.10;15.40;;;;;;;6.69;93.82;99462.55;107894;1235;97850;-74
2022/12/22 14:27:26;;;;;;;28.70;15.40;;;;;;;6.68;94.00;99461.02;106587;1241;139029;-74
2022/12/22 14:29:52;;;;;;;25.70;14.10;;;;;;;6.68;94.09;99458.66;106658;1241;110133;-74
2022/12/22 14:32:51;;;;;;;34.20;16.50;;;;;;;6.68;94.04;99457.80;106477;1231;138650;-74
2022/12/22 14:35:25;;;;;;;31.30;16.40;;;;;;;6.70;94.30;99462.13;106614;1247;106948;-73
2022/12/22 14:37:53;;;;;;;36.70;16.70;;;;;;;6.72;94.19;99459.20;106501;1245;138673;-70
2022/12/22 14:40:30;;;;;;;32.30;16.40;;;;;;;6.70;94.16;99460.74;106746;1240;97733;-72
2022/12/22 14:42:57;;;;;;;38.30;17.60;;;;;;;6.68;94.19;99455.66;106555;1234;111968;-73
2022/12/22 14:45:23;;;;;;;35.00;17.40;;;;;;;6.66;94.29;99452.20;106448;1232;138585;-72
2022/12/22 14:47:50;;;;;;;35.60;15.80;;;;;;;6.67;94.27;99452.85;106656;1241;97621;-73
2022/12/22 14:50:18;;;;;;;34.00;16.90;;;;;;;6.67;94.30;99450.05;106795;1241;139187;-75
2022/12/22 14:52:49;;;;;;;32.20;18.30;;;;;;;6.67;94.48;99453.40;106702;1241;97621;-72
2022/12/22 14:55:33;;;;;;;41.00;20.80;;;;;;;6.66;94.38;99450.25;106683;1235;112143;-73
2022/12/22 14:58:04;;;;;;;35.10;18.90;;;;;;;6.64;94.29;99450.88;106631;1236;138717;-72
2022/12/22 15:00:29;;;;;;;39.30;18.40;;;;;;;6.62;94.43;99450.43;106718;1234;108592;-73
2022/12/22 15:03:01;;;;;;;38.30;18.20;;;;;;;6.63;94.40;99451.45;106631;1235;139330;-74
2022/12/22 15:05:31;;;;;;;35.40;17.60;;;;;;;6.62;94.45;99451.52;106824;1244;98312;-74
2022/12/22 15:07:58;;;;;;;38.80;20.20;;;;;;;6.61;94.43;99453.70;106656;1237;138784;-72
2022/12/22 15:10:26;;;;;;;55.40;22.60;;;;;;;6.59;94.50;99448.63;106830;1237;98895;-73